sensor_id;sensor_type;location;lat;lon;timestamp;P1;durP1;ratioP1;P2;durP2;ratioP2
10389;SDS011;5241;47.830;12.972;2024-03-02T00:00:18;30.73;;;16.40;;
10389;SDS011;5241;47.830;12.972;2024-03-02T00:02:46;29.33;;;15.67;;
10389;SDS011;5241;47.830;12.972;2024-03-02T00:07:56;30.50;;;14.70;;
10389;SDS011;5241;47.830;12.972;2024-03-02T00:10:26;29.63;;;16.43;;
10389;SDS011;5241;47.830;12.972;2024-03-02T00:13:02;27.70;;;15.33;;
10389;SDS011;5241;47.830;12.972;2024-03-02T00:18:13;23.70;;;14.37;;
10389;SDS011;5241;47.830;12.972;2024-03-02T00:20:41;27.20;;;15.03;;
10389;SDS011;5241;47.830;12.972;2024-03-02T00:23:07;27.67;;;15.13;;
10389;SDS011;5241;47.830;12.972;2024-03-02T00:25:43;28.57;;;15.23;;
10389;SDS011;5241;47.830;12.972;2024-03-02T00:28:24;28.03;;;15.00;;
10389;SDS011;5241;47.830;12.972;2024-03-02T00:33:27;28.40;;;15.07;;
10389;SDS011;5241;47.830;12.972;2024-03-02T00:36:03;28.90;;;16.40;;
10389;SDS011;5241;47.830;12.972;2024-03-02T00:38:30;27.10;;;15.90;;
10389;SDS011;5241;47.830;12.972;2024-03-02T00:40:58;24.00;;;13.87;;
10389;SDS011;5241;47.830;12.972;2024-03-02T00:45:49;27.10;;;13.97;;
10389;SDS011;5241;47.830;12.972;2024-03-02T00:48:15;25.13;;;14.40;;
10389;SDS011;5241;47.830;12.972;2024-03-02T00:50:41;25.70;;;14.27;;
10389;SDS011;5241;47.830;12.972;2024-03-02T00:53:09;24.37;;;13.47;;
10389;SDS011;5241;47.830;12.972;2024-03-02T00:55:37;27.50;;;15.70;;
10389;SDS011;5241;47.830;12.972;2024-03-02T00:58:03;26.53;;;14.83;;
10389;SDS011;5241;47.830;12.972;2024-03-02T01:00:28;23.67;;;13.70;;
10389;SDS011;5241;47.830;12.972;2024-03-02T01:02:54;26.30;;;13.63;;
10389;SDS011;5241;47.830;12.972;2024-03-02T01:05:19;25.83;;;14.43;;
10389;SDS011;5241;47.830;12.972;2024-03-02T01:07:45;33.07;;;15.53;;
10389;SDS011;5241;47.830;12.972;2024-03-02T01:10:11;26.57;;;13.97;;
10389;SDS011;5241;47.830;12.972;2024-03-02T01:12:36;29.50;;;14.13;;
10389;SDS011;5241;47.830;12.972;2024-03-02T01:15:02;25.17;;;14.67;;
10389;SDS011;5241;47.830;12.972;2024-03-02T01:17:30;27.23;;;14.43;;
10389;SDS011;5241;47.830;12.972;2024-03-02T01:19:56;28.53;;;14.43;;
10389;SDS011;5241;47.830;12.972;2024-03-02T01:22:22;24.80;;;13.93;;
10389;SDS011;5241;47.830;12.972;2024-03-02T01:24:50;30.73;;;15.10;;
10389;SDS011;5241;47.830;12.972;2024-03-02T01:27:16;28.83;;;14.17;;
10389;SDS011;5241;47.830;12.972;2024-03-02T01:29:41;28.87;;;14.10;;
10389;SDS011;5241;47.830;12.972;2024-03-02T01:32:07;31.83;;;14.43;;
10389;SDS011;5241;47.830;12.972;2024-03-02T01:34:33;24.97;;;14.20;;
10389;SDS011;5241;47.830;12.972;2024-03-02T01:36:58;27.80;;;13.00;;
10389;SDS011;5241;47.830;12.972;2024-03-02T01:39:24;24.73;;;13.00;;
10389;SDS011;5241;47.830;12.972;2024-03-02T01:41:49;28.37;;;14.17;;
10389;SDS011;5241;47.830;12.972;2024-03-02T01:44:15;24.70;;;13.20;;
10389;SDS011;5241;47.830;12.972;2024-03-02T01:46:40;27.90;;;13.83;;
10389;SDS011;5241;47.830;12.972;2024-03-02T01:49:06;28.23;;;13.93;;
10389;SDS011;5241;47.830;12.972;2024-03-02T01:51:31;25.50;;;13.43;;
10389;SDS011;5241;47.830;12.972;2024-03-02T01:53:57;26.37;;;12.03;;
10389;SDS011;5241;47.830;12.972;2024-03-02T01:56:23;23.53;;;13.33;;
10389;SDS011;5241;47.830;12.972;2024-03-02T01:58:49;25.47;;;13.77;;
10389;SDS011;5241;47.830;12.972;2024-03-02T02:01:14;29.77;;;13.40;;
10389;SDS011;5241;47.830;12.972;2024-03-02T02:03:41;22.83;;;12.90;;
10389;SDS011;5241;47.830;12.972;2024-03-02T02:06:08;25.50;;;13.33;;
10389;SDS011;5241;47.830;12.972;2024-03-02T02:08:34;27.30;;;12.80;;
10389;SDS011;5241;47.830;12.972;2024-03-02T02:11:02;25.57;;;13.20;;
10389;SDS011;5241;47.830;12.972;2024-03-02T02:13:27;25.67;;;14.40;;
10389;SDS011;5241;47.830;12.972;2024-03-02T02:15:53;30.20;;;13.63;;
10389;SDS011;5241;47.830;12.972;2024-03-02T02:18:18;24.73;;;13.00;;
10389;SDS011;5241;47.830;12.972;2024-03-02T02:20:44;27.50;;;14.23;;
10389;SDS011;5241;47.830;12.972;2024-03-02T02:23:09;29.87;;;14.60;;
10389;SDS011;5241;47.830;12.972;2024-03-02T02:25:35;27.77;;;14.13;;
10389;SDS011;5241;47.830;12.972;2024-03-02T02:28:01;29.90;;;15.47;;
10389;SDS011;5241;47.830;12.972;2024-03-02T02:30:30;26.87;;;14.40;;
10389;SDS011;5241;47.830;12.972;2024-03-02T02:32:57;27.90;;;14.33;;
10389;SDS011;5241;47.830;12.972;2024-03-02T02:35:23;31.03;;;13.47;;
10389;SDS011;5241;47.830;12.972;2024-03-02T02:37:52;26.10;;;12.83;;
10389;SDS011;5241;47.830;12.972;2024-03-02T02:40:19;23.10;;;12.90;;
10389;SDS011;5241;47.830;12.972;2024-03-02T02:42:45;23.83;;;11.97;;
10389;SDS011;5241;47.830;12.972;2024-03-02T02:45:10;23.77;;;13.40;;
10389;SDS011;5241;47.830;12.972;2024-03-02T02:47:38;22.53;;;12.17;;
10389;SDS011;5241;47.830;12.972;2024-03-02T02:50:03;24.07;;;12.43;;
10389;SDS011;5241;47.830;12.972;2024-03-02T02:52:33;27.20;;;12.97;;
10389;SDS011;5241;47.830;12.972;2024-03-02T02:55:01;26.20;;;13.20;;
10389;SDS011;5241;47.830;12.972;2024-03-02T02:57:32;22.53;;;11.10;;
10389;SDS011;5241;47.830;12.972;2024-03-02T03:00:04;20.13;;;11.43;;
10389;SDS011;5241;47.830;12.972;2024-03-02T03:02:35;21.27;;;12.63;;
10389;SDS011;5241;47.830;12.972;2024-03-02T03:05:02;24.00;;;13.03;;
10389;SDS011;5241;47.830;12.972;2024-03-02T03:07:28;26.17;;;12.43;;
10389;SDS011;5241;47.830;12.972;2024-03-02T03:09:53;24.53;;;12.77;;
10389;SDS011;5241;47.830;12.972;2024-03-02T03:12:19;21.23;;;12.03;;
10389;SDS011;5241;47.830;12.972;2024-03-02T03:14:44;24.77;;;12.80;;
10389;SDS011;5241;47.830;12.972;2024-03-02T03:17:10;26.10;;;13.23;;
10389;SDS011;5241;47.830;12.972;2024-03-02T03:19:37;23.40;;;13.07;;
10389;SDS011;5241;47.830;12.972;2024-03-02T03:22:03;27.27;;;13.83;;
10389;SDS011;5241;47.830;12.972;2024-03-02T03:24:29;26.47;;;13.33;;
10389;SDS011;5241;47.830;12.972;2024-03-02T03:26:55;31.13;;;14.20;;
10389;SDS011;5241;47.830;12.972;2024-03-02T03:29:20;25.30;;;13.60;;
10389;SDS011;5241;47.830;12.972;2024-03-02T03:31:45;27.03;;;13.13;;
10389;SDS011;5241;47.830;12.972;2024-03-02T03:34:11;25.30;;;12.43;;
10389;SDS011;5241;47.830;12.972;2024-03-02T03:36:40;28.43;;;13.70;;
10389;SDS011;5241;47.830;12.972;2024-03-02T03:39:06;21.60;;;11.60;;
10389;SDS011;5241;47.830;12.972;2024-03-02T03:41:32;23.13;;;11.77;;
10389;SDS011;5241;47.830;12.972;2024-03-02T03:43:57;25.53;;;12.50;;
10389;SDS011;5241;47.830;12.972;2024-03-02T03:46:23;25.00;;;11.30;;
10389;SDS011;5241;47.830;12.972;2024-03-02T03:48:48;21.40;;;12.00;;
10389;SDS011;5241;47.830;12.972;2024-03-02T03:51:14;22.37;;;12.77;;
10389;SDS011;5241;47.830;12.972;2024-03-02T03:53:39;22.73;;;12.57;;
10389;SDS011;5241;47.830;12.972;2024-03-02T03:56:05;20.33;;;12.20;;
10389;SDS011;5241;47.830;12.972;2024-03-02T03:58:30;22.63;;;11.97;;
10389;SDS011;5241;47.830;12.972;2024-03-02T04:00:56;23.03;;;12.13;;
10389;SDS011;5241;47.830;12.972;2024-03-02T04:03:22;24.07;;;12.67;;
10389;SDS011;5241;47.830;12.972;2024-03-02T04:05:48;25.77;;;13.20;;
10389;SDS011;5241;47.830;12.972;2024-03-02T04:08:13;20.27;;;12.40;;
10389;SDS011;5241;47.830;12.972;2024-03-02T04:10:39;22.73;;;12.27;;
10389;SDS011;5241;47.830;12.972;2024-03-02T04:13:05;23.47;;;11.57;;
10389;SDS011;5241;47.830;12.972;2024-03-02T04:15:30;23.47;;;11.63;;
10389;SDS011;5241;47.830;12.972;2024-03-02T04:17:56;17.90;;;10.60;;
10389;SDS011;5241;47.830;12.972;2024-03-02T04:20:21;21.17;;;11.83;;
10389;SDS011;5241;47.830;12.972;2024-03-02T04:22:47;19.77;;;11.17;;
10389;SDS011;5241;47.830;12.972;2024-03-02T04:25:12;18.63;;;10.13;;
10389;SDS011;5241;47.830;12.972;2024-03-02T04:27:38;23.13;;;12.20;;
10389;SDS011;5241;47.830;12.972;2024-03-02T04:30:04;24.90;;;11.53;;
10389;SDS011;5241;47.830;12.972;2024-03-02T04:32:30;18.30;;;11.63;;
10389;SDS011;5241;47.830;12.972;2024-03-02T04:34:56;24.40;;;12.13;;
10389;SDS011;5241;47.830;12.972;2024-03-02T04:37:22;20.87;;;11.43;;
10389;SDS011;5241;47.830;12.972;2024-03-02T04:39:48;21.13;;;11.37;;
10389;SDS011;5241;47.830;12.972;2024-03-02T04:42:13;22.50;;;10.93;;
10389;SDS011;5241;47.830;12.972;2024-03-02T04:44:39;21.47;;;11.47;;
10389;SDS011;5241;47.830;12.972;2024-03-02T04:47:04;19.73;;;11.57;;
10389;SDS011;5241;47.830;12.972;2024-03-02T04:49:30;21.17;;;11.63;;
10389;SDS011;5241;47.830;12.972;2024-03-02T04:51:56;23.53;;;10.87;;
10389;SDS011;5241;47.830;12.972;2024-03-02T04:54:22;19.17;;;10.87;;
10389;SDS011;5241;47.830;12.972;2024-03-02T04:56:47;18.47;;;11.43;;
10389;SDS011;5241;47.830;12.972;2024-03-02T04:59:16;18.70;;;9.53;;
10389;SDS011;5241;47.830;12.972;2024-03-02T05:01:45;15.23;;;8.50;;
10389;SDS011;5241;47.830;12.972;2024-03-02T05:04:12;18.67;;;8.87;;
10389;SDS011;5241;47.830;12.972;2024-03-02T05:06:38;20.83;;;10.20;;
10389;SDS011;5241;47.830;12.972;2024-03-02T05:09:07;21.77;;;9.70;;
10389;SDS011;5241;47.830;12.972;2024-03-02T05:11:33;23.60;;;9.20;;
10389;SDS011;5241;47.830;12.972;2024-03-02T05:14:02;14.80;;;9.00;;
10389;SDS011;5241;47.830;12.972;2024-03-02T05:16:28;18.40;;;10.80;;
10389;SDS011;5241;47.830;12.972;2024-03-02T05:18:54;17.93;;;9.07;;
10389;SDS011;5241;47.830;12.972;2024-03-02T05:21:19;17.37;;;8.37;;
10389;SDS011;5241;47.830;12.972;2024-03-02T05:23:45;20.53;;;10.07;;
10389;SDS011;5241;47.830;12.972;2024-03-02T05:26:10;23.93;;;10.43;;
10389;SDS011;5241;47.830;12.972;2024-03-02T05:28:38;17.37;;;9.80;;
10389;SDS011;5241;47.830;12.972;2024-03-02T05:31:03;17.17;;;9.93;;
10389;SDS011;5241;47.830;12.972;2024-03-02T05:33:29;19.63;;;9.67;;
10389;SDS011;5241;47.830;12.972;2024-03-02T05:35:56;19.60;;;10.20;;
10389;SDS011;5241;47.830;12.972;2024-03-02T05:38:22;25.07;;;10.97;;
10389;SDS011;5241;47.830;12.972;2024-03-02T05:40:48;35.17;;;11.00;;
10389;SDS011;5241;47.830;12.972;2024-03-02T05:43:13;18.83;;;11.13;;
10389;SDS011;5241;47.830;12.972;2024-03-02T05:45:39;27.87;;;10.93;;
10389;SDS011;5241;47.830;12.972;2024-03-02T05:48:06;18.60;;;10.63;;
10389;SDS011;5241;47.830;12.972;2024-03-02T05:50:32;21.17;;;10.53;;
10389;SDS011;5241;47.830;12.972;2024-03-02T05:52:58;38.60;;;11.60;;
10389;SDS011;5241;47.830;12.972;2024-03-02T05:55:24;20.20;;;11.00;;
10389;SDS011;5241;47.830;12.972;2024-03-02T05:57:49;23.23;;;11.10;;
10389;SDS011;5241;47.830;12.972;2024-03-02T06:00:35;25.50;;;10.83;;
10389;SDS011;5241;47.830;12.972;2024-03-02T06:03:00;17.23;;;11.00;;
10389;SDS011;5241;47.830;12.972;2024-03-02T06:05:26;18.80;;;11.07;;
10389;SDS011;5241;47.830;12.972;2024-03-02T06:07:52;31.27;;;10.70;;
10389;SDS011;5241;47.830;12.972;2024-03-02T06:10:17;23.57;;;11.20;;
10389;SDS011;5241;47.830;12.972;2024-03-02T06:12:43;32.13;;;9.70;;
10389;SDS011;5241;47.830;12.972;2024-03-02T06:15:09;16.00;;;9.80;;
10389;SDS011;5241;47.830;12.972;2024-03-02T06:17:36;18.67;;;10.10;;
10389;SDS011;5241;47.830;12.972;2024-03-02T06:20:01;41.33;;;10.70;;
10389;SDS011;5241;47.830;12.972;2024-03-02T06:22:27;18.37;;;11.13;;
10389;SDS011;5241;47.830;12.972;2024-03-02T06:24:53;17.53;;;10.53;;
10389;SDS011;5241;47.830;12.972;2024-03-02T06:27:18;19.87;;;10.40;;
10389;SDS011;5241;47.830;12.972;2024-03-02T06:29:44;22.77;;;10.17;;
10389;SDS011;5241;47.830;12.972;2024-03-02T06:32:09;17.13;;;9.87;;
10389;SDS011;5241;47.830;12.972;2024-03-02T06:34:35;17.23;;;10.30;;
10389;SDS011;5241;47.830;12.972;2024-03-02T06:37:00;17.77;;;9.87;;
10389;SDS011;5241;47.830;12.972;2024-03-02T06:39:26;29.97;;;9.73;;
10389;SDS011;5241;47.830;12.972;2024-03-02T06:41:51;23.27;;;9.73;;
10389;SDS011;5241;47.830;12.972;2024-03-02T06:44:17;22.37;;;10.23;;
10389;SDS011;5241;47.830;12.972;2024-03-02T06:46:43;16.13;;;9.97;;
10389;SDS011;5241;47.830;12.972;2024-03-02T06:49:08;17.93;;;9.33;;
10389;SDS011;5241;47.830;12.972;2024-03-02T06:51:35;19.33;;;10.87;;
10389;SDS011;5241;47.830;12.972;2024-03-02T06:54:01;17.17;;;10.23;;
10389;SDS011;5241;47.830;12.972;2024-03-02T06:56:27;17.80;;;10.90;;
10389;SDS011;5241;47.830;12.972;2024-03-02T06:58:52;15.73;;;10.43;;
10389;SDS011;5241;47.830;12.972;2024-03-02T07:01:18;20.83;;;10.80;;
10389;SDS011;5241;47.830;12.972;2024-03-02T07:03:45;18.30;;;10.90;;
10389;SDS011;5241;47.830;12.972;2024-03-02T07:06:10;17.10;;;10.60;;
10389;SDS011;5241;47.830;12.972;2024-03-02T07:08:36;23.70;;;14.63;;
10389;SDS011;5241;47.830;12.972;2024-03-02T07:11:01;21.10;;;11.90;;
10389;SDS011;5241;47.830;12.972;2024-03-02T07:13:27;19.37;;;11.83;;
10389;SDS011;5241;47.830;12.972;2024-03-02T07:15:53;18.87;;;11.50;;
10389;SDS011;5241;47.830;12.972;2024-03-02T07:18:27;20.07;;;11.03;;
10389;SDS011;5241;47.830;12.972;2024-03-02T07:20:52;15.70;;;11.27;;
10389;SDS011;5241;47.830;12.972;2024-03-02T07:23:18;15.93;;;10.63;;
10389;SDS011;5241;47.830;12.972;2024-03-02T07:25:45;15.47;;;10.23;;
10389;SDS011;5241;47.830;12.972;2024-03-02T07:28:11;15.07;;;10.40;;
10389;SDS011;5241;47.830;12.972;2024-03-02T07:30:36;19.23;;;11.40;;
10389;SDS011;5241;47.830;12.972;2024-03-02T07:33:04;17.17;;;9.63;;
10389;SDS011;5241;47.830;12.972;2024-03-02T07:35:29;20.97;;;10.77;;
10389;SDS011;5241;47.830;12.972;2024-03-02T07:37:56;19.00;;;10.57;;
10389;SDS011;5241;47.830;12.972;2024-03-02T07:40:22;19.13;;;11.00;;
10389;SDS011;5241;47.830;12.972;2024-03-02T07:42:48;19.27;;;10.40;;
10389;SDS011;5241;47.830;12.972;2024-03-02T07:45:13;22.00;;;11.40;;
10389;SDS011;5241;47.830;12.972;2024-03-02T07:47:40;16.80;;;9.70;;
10389;SDS011;5241;47.830;12.972;2024-03-02T07:50:05;19.13;;;10.97;;
10389;SDS011;5241;47.830;12.972;2024-03-02T07:52:31;14.33;;;8.97;;
10389;SDS011;5241;47.830;12.972;2024-03-02T07:54:58;18.17;;;10.43;;
10389;SDS011;5241;47.830;12.972;2024-03-02T07:57:24;19.70;;;10.77;;
10389;SDS011;5241;47.830;12.972;2024-03-02T07:59:50;16.53;;;9.97;;
10389;SDS011;5241;47.830;12.972;2024-03-02T08:02:15;25.23;;;11.90;;
10389;SDS011;5241;47.830;12.972;2024-03-02T08:04:41;21.93;;;11.23;;
10389;SDS011;5241;47.830;12.972;2024-03-02T08:07:07;18.97;;;10.33;;
10389;SDS011;5241;47.830;12.972;2024-03-02T08:09:34;18.43;;;10.23;;
10389;SDS011;5241;47.830;12.972;2024-03-02T08:11:59;19.47;;;11.13;;
10389;SDS011;5241;47.830;12.972;2024-03-02T08:14:25;17.27;;;11.30;;
10389;SDS011;5241;47.830;12.972;2024-03-02T08:16:51;18.10;;;10.70;;
10389;SDS011;5241;47.830;12.972;2024-03-02T08:19:16;20.63;;;11.27;;
10389;SDS011;5241;47.830;12.972;2024-03-02T08:21:42;22.03;;;11.63;;
10389;SDS011;5241;47.830;12.972;2024-03-02T08:24:08;19.10;;;11.73;;
10389;SDS011;5241;47.830;12.972;2024-03-02T08:26:34;18.60;;;11.10;;
10389;SDS011;5241;47.830;12.972;2024-03-02T08:29:00;18.27;;;11.63;;
10389;SDS011;5241;47.830;12.972;2024-03-02T08:31:29;17.63;;;10.07;;
10389;SDS011;5241;47.830;12.972;2024-03-02T08:33:55;16.87;;;10.33;;
10389;SDS011;5241;47.830;12.972;2024-03-02T08:36:21;17.53;;;10.10;;
10389;SDS011;5241;47.830;12.972;2024-03-02T08:38:49;16.07;;;9.63;;
10389;SDS011;5241;47.830;12.972;2024-03-02T08:41:15;14.17;;;9.47;;
10389;SDS011;5241;47.830;12.972;2024-03-02T08:43:41;13.57;;;9.90;;
10389;SDS011;5241;47.830;12.972;2024-03-02T08:46:07;14.33;;;9.50;;
10389;SDS011;5241;47.830;12.972;2024-03-02T08:48:33;15.07;;;8.73;;
10389;SDS011;5241;47.830;12.972;2024-03-02T08:50:59;11.20;;;7.80;;
10389;SDS011;5241;47.830;12.972;2024-03-02T08:53:25;15.27;;;9.20;;
10389;SDS011;5241;47.830;12.972;2024-03-02T08:55:51;13.47;;;8.47;;
10389;SDS011;5241;47.830;12.972;2024-03-02T08:58:16;12.57;;;7.87;;
10389;SDS011;5241;47.830;12.972;2024-03-02T09:00:42;12.13;;;7.57;;
10389;SDS011;5241;47.830;12.972;2024-03-02T09:03:07;13.17;;;7.70;;
10389;SDS011;5241;47.830;12.972;2024-03-02T09:05:33;10.47;;;7.27;;
10389;SDS011;5241;47.830;12.972;2024-03-02T09:07:59;10.57;;;7.10;;
10389;SDS011;5241;47.830;12.972;2024-03-02T09:10:24;10.33;;;6.63;;
10389;SDS011;5241;47.830;12.972;2024-03-02T09:12:50;9.33;;;5.87;;
10389;SDS011;5241;47.830;12.972;2024-03-02T09:15:15;9.27;;;6.20;;
10389;SDS011;5241;47.830;12.972;2024-03-02T09:17:41;13.50;;;7.23;;
10389;SDS011;5241;47.830;12.972;2024-03-02T09:20:06;10.03;;;6.00;;
10389;SDS011;5241;47.830;12.972;2024-03-02T09:22:32;9.97;;;6.70;;
10389;SDS011;5241;47.830;12.972;2024-03-02T09:24:58;10.63;;;6.33;;
10389;SDS011;5241;47.830;12.972;2024-03-02T09:27:23;8.63;;;6.03;;
10389;SDS011;5241;47.830;12.972;2024-03-02T09:29:49;8.07;;;6.13;;
10389;SDS011;5241;47.830;12.972;2024-03-02T09:32:14;8.50;;;5.93;;
10389;SDS011;5241;47.830;12.972;2024-03-02T09:34:40;7.27;;;5.77;;
10389;SDS011;5241;47.830;12.972;2024-03-02T09:37:06;7.93;;;5.10;;
10389;SDS011;5241;47.830;12.972;2024-03-02T09:39:32;8.50;;;5.30;;
10389;SDS011;5241;47.830;12.972;2024-03-02T09:41:58;7.63;;;5.63;;
10389;SDS011;5241;47.830;12.972;2024-03-02T09:44:24;10.57;;;5.80;;
10389;SDS011;5241;47.830;12.972;2024-03-02T09:46:51;10.30;;;6.10;;
10389;SDS011;5241;47.830;12.972;2024-03-02T09:49:17;10.07;;;5.50;;
10389;SDS011;5241;47.830;12.972;2024-03-02T09:51:46;10.07;;;5.33;;
10389;SDS011;5241;47.830;12.972;2024-03-02T09:54:13;6.37;;;4.57;;
10389;SDS011;5241;47.830;12.972;2024-03-02T09:56:40;8.57;;;4.70;;
10389;SDS011;5241;47.830;12.972;2024-03-02T09:59:06;7.13;;;4.90;;
10389;SDS011;5241;47.830;12.972;2024-03-02T10:01:32;5.93;;;4.30;;
10389;SDS011;5241;47.830;12.972;2024-03-02T10:04:00;6.37;;;3.83;;
10389;SDS011;5241;47.830;12.972;2024-03-02T10:06:27;4.60;;;3.30;;
10389;SDS011;5241;47.830;12.972;2024-03-02T10:08:54;4.63;;;2.93;;
10389;SDS011;5241;47.830;12.972;2024-03-02T10:11:31;5.17;;;3.10;;
10389;SDS011;5241;47.830;12.972;2024-03-02T10:14:05;4.37;;;3.37;;
10389;SDS011;5241;47.830;12.972;2024-03-02T10:16:39;6.10;;;3.47;;
10389;SDS011;5241;47.830;12.972;2024-03-02T10:19:15;5.03;;;3.33;;
10389;SDS011;5241;47.830;12.972;2024-03-02T10:21:48;4.27;;;2.90;;
10389;SDS011;5241;47.830;12.972;2024-03-02T10:24:22;4.50;;;3.00;;
10389;SDS011;5241;47.830;12.972;2024-03-02T10:26:48;5.10;;;3.40;;
10389;SDS011;5241;47.830;12.972;2024-03-02T10:29:13;5.03;;;3.27;;
10389;SDS011;5241;47.830;12.972;2024-03-02T10:31:43;5.23;;;3.33;;
10389;SDS011;5241;47.830;12.972;2024-03-02T10:34:10;4.97;;;3.00;;
10389;SDS011;5241;47.830;12.972;2024-03-02T10:36:37;4.57;;;3.20;;
10389;SDS011;5241;47.830;12.972;2024-03-02T10:39:06;5.37;;;3.03;;
10389;SDS011;5241;47.830;12.972;2024-03-02T10:41:33;4.23;;;2.80;;
10389;SDS011;5241;47.830;12.972;2024-03-02T10:44:03;4.60;;;2.90;;
10389;SDS011;5241;47.830;12.972;2024-03-02T10:46:30;4.27;;;3.70;;
10389;SDS011;5241;47.830;12.972;2024-03-02T10:48:57;4.10;;;3.53;;
10389;SDS011;5241;47.830;12.972;2024-03-02T10:51:24;5.67;;;3.60;;
10389;SDS011;5241;47.830;12.972;2024-03-02T10:53:56;4.40;;;3.30;;
10389;SDS011;5241;47.830;12.972;2024-03-02T10:56:29;5.80;;;3.70;;
10389;SDS011;5241;47.830;12.972;2024-03-02T10:59:03;5.23;;;4.10;;
10389;SDS011;5241;47.830;12.972;2024-03-02T11:01:38;4.63;;;3.70;;
10389;SDS011;5241;47.830;12.972;2024-03-02T11:04:04;4.30;;;3.33;;
10389;SDS011;5241;47.830;12.972;2024-03-02T11:06:33;3.60;;;3.23;;
10389;SDS011;5241;47.830;12.972;2024-03-02T11:09:03;4.07;;;3.40;;
10389;SDS011;5241;47.830;12.972;2024-03-02T11:11:33;3.80;;;3.37;;
10389;SDS011;5241;47.830;12.972;2024-03-02T11:14:01;4.00;;;3.20;;
10389;SDS011;5241;47.830;12.972;2024-03-02T11:16:36;3.83;;;3.07;;
10389;SDS011;5241;47.830;12.972;2024-03-02T11:19:05;4.40;;;3.30;;
10389;SDS011;5241;47.830;12.972;2024-03-02T11:21:33;4.70;;;3.37;;
10389;SDS011;5241;47.830;12.972;2024-03-02T11:23:59;5.40;;;3.03;;
10389;SDS011;5241;47.830;12.972;2024-03-02T11:26:27;3.93;;;2.80;;
10389;SDS011;5241;47.830;12.972;2024-03-02T11:28:53;3.97;;;3.40;;
10389;SDS011;5241;47.830;12.972;2024-03-02T11:31:20;4.37;;;3.23;;
10389;SDS011;5241;47.830;12.972;2024-03-02T11:33:46;3.63;;;3.10;;
10389;SDS011;5241;47.830;12.972;2024-03-02T11:36:12;3.30;;;3.00;;
10389;SDS011;5241;47.830;12.972;2024-03-02T11:38:37;4.13;;;3.00;;
10389;SDS011;5241;47.830;12.972;2024-03-02T11:41:05;4.97;;;3.10;;
10389;SDS011;5241;47.830;12.972;2024-03-02T11:43:33;4.10;;;3.30;;
10389;SDS011;5241;47.830;12.972;2024-03-02T11:46:04;3.13;;;2.67;;
10389;SDS011;5241;47.830;12.972;2024-03-02T11:48:32;4.67;;;3.00;;
10389;SDS011;5241;47.830;12.972;2024-03-02T11:50:59;4.50;;;3.20;;
10389;SDS011;5241;47.830;12.972;2024-03-02T11:53:26;3.40;;;3.10;;
10389;SDS011;5241;47.830;12.972;2024-03-02T11:55:54;4.17;;;3.40;;
10389;SDS011;5241;47.830;12.972;2024-03-02T11:58:21;3.67;;;2.97;;
10389;SDS011;5241;47.830;12.972;2024-03-02T12:00:55;4.50;;;3.27;;
10389;SDS011;5241;47.830;12.972;2024-03-02T12:03:22;5.20;;;3.77;;
10389;SDS011;5241;47.830;12.972;2024-03-02T12:05:50;4.93;;;3.93;;
10389;SDS011;5241;47.830;12.972;2024-03-02T12:08:17;5.40;;;4.27;;
10389;SDS011;5241;47.830;12.972;2024-03-02T12:10:43;5.65;;;3.80;;
10389;SDS011;5241;47.830;12.972;2024-03-02T12:13:27;5.57;;;4.17;;
10389;SDS011;5241;47.830;12.972;2024-03-02T12:15:53;5.67;;;4.30;;
10389;SDS011;5241;47.830;12.972;2024-03-02T12:18:23;5.00;;;3.87;;
10389;SDS011;5241;47.830;12.972;2024-03-02T12:20:49;5.30;;;3.87;;
10389;SDS011;5241;47.830;12.972;2024-03-02T12:23:22;5.27;;;4.13;;
10389;SDS011;5241;47.830;12.972;2024-03-02T12:25:47;5.03;;;4.03;;
10389;SDS011;5241;47.830;12.972;2024-03-02T12:28:13;6.93;;;4.23;;
10389;SDS011;5241;47.830;12.972;2024-03-02T12:30:39;5.17;;;4.50;;
10389;SDS011;5241;47.830;12.972;2024-03-02T12:33:05;6.93;;;4.87;;
10389;SDS011;5241;47.830;12.972;2024-03-02T12:35:30;6.07;;;4.63;;
10389;SDS011;5241;47.830;12.972;2024-03-02T12:37:56;6.47;;;4.50;;
10389;SDS011;5241;47.830;12.972;2024-03-02T12:40:23;6.50;;;5.13;;
10389;SDS011;5241;47.830;12.972;2024-03-02T12:42:49;5.53;;;4.67;;
10389;SDS011;5241;47.830;12.972;2024-03-02T12:45:15;5.17;;;4.60;;
10389;SDS011;5241;47.830;12.972;2024-03-02T12:47:41;6.63;;;5.23;;
10389;SDS011;5241;47.830;12.972;2024-03-02T12:50:07;6.13;;;4.90;;
10389;SDS011;5241;47.830;12.972;2024-03-02T12:52:34;5.83;;;4.77;;
10389;SDS011;5241;47.830;12.972;2024-03-02T12:55:00;6.97;;;5.07;;
10389;SDS011;5241;47.830;12.972;2024-03-02T12:57:28;6.23;;;5.03;;
10389;SDS011;5241;47.830;12.972;2024-03-02T13:00:04;7.07;;;5.10;;
10389;SDS011;5241;47.830;12.972;2024-03-02T13:02:34;5.97;;;4.93;;
10389;SDS011;5241;47.830;12.972;2024-03-02T13:05:00;6.27;;;4.67;;
10389;SDS011;5241;47.830;12.972;2024-03-02T13:07:26;6.37;;;4.70;;
10389;SDS011;5241;47.830;12.972;2024-03-02T13:09:53;6.33;;;4.90;;
10389;SDS011;5241;47.830;12.972;2024-03-02T13:12:20;5.97;;;5.10;;
10389;SDS011;5241;47.830;12.972;2024-03-02T13:14:52;6.40;;;4.67;;
10389;SDS011;5241;47.830;12.972;2024-03-02T13:17:19;5.53;;;4.30;;
10389;SDS011;5241;47.830;12.972;2024-03-02T13:20:18;5.10;;;4.13;;
10389;SDS011;5241;47.830;12.972;2024-03-02T13:22:39;5.17;;;3.90;;
10389;SDS011;5241;47.830;12.972;2024-03-02T13:25:05;5.90;;;4.00;;
10389;SDS011;5241;47.830;12.972;2024-03-02T13:27:31;6.70;;;3.97;;
10389;SDS011;5241;47.830;12.972;2024-03-02T13:29:57;5.03;;;3.97;;
10389;SDS011;5241;47.830;12.972;2024-03-02T13:32:23;5.00;;;4.17;;
10389;SDS011;5241;47.830;12.972;2024-03-02T13:34:50;5.57;;;4.53;;
10389;SDS011;5241;47.830;12.972;2024-03-02T13:37:16;5.87;;;4.47;;
10389;SDS011;5241;47.830;12.972;2024-03-02T13:39:42;5.27;;;3.87;;
10389;SDS011;5241;47.830;12.972;2024-03-02T13:42:08;8.07;;;5.07;;
10389;SDS011;5241;47.830;12.972;2024-03-02T13:44:35;7.30;;;5.00;;
10389;SDS011;5241;47.830;12.972;2024-03-02T13:47:01;6.10;;;5.03;;
10389;SDS011;5241;47.830;12.972;2024-03-02T13:49:27;6.37;;;5.20;;
10389;SDS011;5241;47.830;12.972;2024-03-02T13:51:58;6.17;;;4.97;;
10389;SDS011;5241;47.830;12.972;2024-03-02T13:54:25;7.27;;;5.03;;
10389;SDS011;5241;47.830;12.972;2024-03-02T13:56:51;5.63;;;4.80;;
10389;SDS011;5241;47.830;12.972;2024-03-02T13:59:17;8.63;;;6.33;;
10389;SDS011;5241;47.830;12.972;2024-03-02T14:01:43;7.93;;;5.70;;
10389;SDS011;5241;47.830;12.972;2024-03-02T14:04:09;8.47;;;6.10;;
10389;SDS011;5241;47.830;12.972;2024-03-02T14:06:35;8.83;;;6.30;;
10389;SDS011;5241;47.830;12.972;2024-03-02T14:09:00;7.87;;;5.50;;
10389;SDS011;5241;47.830;12.972;2024-03-02T14:11:26;8.80;;;5.80;;
10389;SDS011;5241;47.830;12.972;2024-03-02T14:13:52;8.47;;;5.93;;
10389;SDS011;5241;47.830;12.972;2024-03-02T14:16:19;7.37;;;6.13;;
10389;SDS011;5241;47.830;12.972;2024-03-02T14:18:45;7.57;;;5.67;;
10389;SDS011;5241;47.830;12.972;2024-03-02T14:21:11;7.57;;;5.57;;
10389;SDS011;5241;47.830;12.972;2024-03-02T14:23:37;5.57;;;4.13;;
10389;SDS011;5241;47.830;12.972;2024-03-02T14:26:02;7.40;;;5.43;;
10389;SDS011;5241;47.830;12.972;2024-03-02T14:28:28;9.63;;;6.30;;
10389;SDS011;5241;47.830;12.972;2024-03-02T14:30:54;9.53;;;6.57;;
10389;SDS011;5241;47.830;12.972;2024-03-02T14:33:20;9.63;;;5.93;;
10389;SDS011;5241;47.830;12.972;2024-03-02T14:35:46;11.00;;;6.03;;
10389;SDS011;5241;47.830;12.972;2024-03-02T14:38:12;9.53;;;6.63;;
10389;SDS011;5241;47.830;12.972;2024-03-02T14:40:37;9.83;;;6.97;;